Time;durP1;ratioP1;P1;durP2;ratioP2;P2;SDS_P1;SDS_P2;PMS_P1;PMS_P2;Temp;Humidity;BMP_temperature;BMP_pressure;BME280_temperature;BME280_humidity;BME280_pressure;Samples;Min_cycle;Max_cycle;Signal;HPM_P1;HPM_P2
2022/04/27 00:00:24;;;;;;;4.53;3.08;;;;;;;12.04;55.11;99246.53;5095877;28;20048;-79
2022/04/27 00:02:58;;;;;;;6.07;3.10;;;;;;;11.98;55.20;99228.28;5096292;28;20052;-77
2022/04/27 00:05:26;;;;;;;4.47;3.13;;;;;;;11.96;55.38;99224.81;5095146;28;20082;-76
2022/04/27 00:07:55;;;;;;;7.95;3.00;;;;;;;11.94;55.56;99226.59;5098889;28;20071;-78
2022/04/27 00:10:24;;;;;;;4.63;2.80;;;;;;;11.77;55.44;99198.00;5099446;28;20078;-81
2022/04/27 00:12:54;;;;;;;3.88;3.15;;;;;;;11.88;55.67;99225.78;5106666;28;20154;-77
2022/04/27 00:15:23;;;;;;;4.50;3.22;;;;;;;11.94;55.41;99240.56;5116559;28;20055;-79
2022/04/27 00:17:52;;;;;;;5.45;3.10;;;;;;;11.77;55.51;99209.31;5117235;28;20036;-77
2022/04/27 00:20:20;;;;;;;4.13;3.10;;;;;;;11.92;55.67;99244.94;5111029;28;20048;-78
2022/04/27 00:22:47;;;;;;;5.65;2.92;;;;;;;11.89;55.46;99258.06;5095206;28;20052;-79
2022/04/27 00:25:16;;;;;;;4.80;2.90;;;;;;;11.83;55.90;99269.44;5095310;28;20063;-77
2022/04/27 00:27:45;;;;;;;6.60;3.22;;;;;;;11.76;55.87;99274.75;5095637;28;20505;-76
2022/04/27 00:30:14;;;;;;;3.50;2.83;;;;;;;11.68;56.08;99280.06;5094887;28;20070;-79
2022/04/27 00:32:42;;;;;;;6.43;3.45;;;;;;;11.59;56.16;99267.94;5093785;28;20062;-78
2022/04/27 00:35:11;;;;;;;5.47;3.80;;;;;;;11.59;56.23;99269.69;5093942;28;20052;-77
2022/04/27 00:37:39;;;;;;;8.57;3.63;;;;;;;11.54;56.28;99269.72;5077034;28;20101;-78
2022/04/27 00:40:09;;;;;;;6.25;3.58;;;;;;;11.44;56.39;99247.16;5094828;28;20043;-77
2022/04/27 00:42:44;;;;;;;9.40;3.45;;;;;;;11.47;56.93;99268.94;5094871;28;20067;-78
2022/04/27 00:45:12;;;;;;;5.45;3.53;;;;;;;11.42;56.86;99275.97;5094685;28;20058;-77
2022/04/27 00:47:41;;;;;;;5.97;3.67;;;;;;;11.36;56.91;99268.16;5093092;28;20428;-76
2022/04/27 00:50:10;;;;;;;4.35;3.38;;;;;;;11.25;57.04;99270.88;5093291;28;20048;-79
2022/04/27 00:52:39;;;;;;;6.07;3.47;;;;;;;11.26;57.66;99272.59;5093054;28;20135;-79
2022/04/27 00:55:07;;;;;;;5.73;3.53;;;;;;;11.11;57.60;99264.91;5096882;28;20056;-78
2022/04/27 00:57:39;;;;;;;6.55;3.20;;;;;;;11.12;57.75;99256.19;5094199;28;20121;-77
2022/04/27 01:00:09;;;;;;;3.85;3.20;;;;;;;11.11;58.10;99275.34;5094285;28;20428;-77
2022/04/27 01:02:36;;;;;;;6.00;3.53;;;;;;;11.00;58.75;99264.13;5092825;28;20048;-76
2022/04/27 01:05:11;;;;;;;6.88;3.55;;;;;;;10.97;58.82;99279.81;5093057;28;20047;-78
2022/04/27 01:07:41;;;;;;;4.93;3.33;;;;;;;10.94;58.94;99280.72;5093075;28;20090;-78
2022/04/27 01:10:11;;;;;;;4.95;3.30;;;;;;;10.92;59.26;99279.00;5094326;28;20134;-77
2022/04/27 01:12:41;;;;;;;5.95;3.28;;;;;;;10.86;59.15;99278.16;5093273;28;20059;-78
2022/04/27 01:15:33;;;;;;;4.28;3.10;;;;;;;10.75;59.32;99266.91;5093177;28;20076;-78
2022/04/27 01:18:03;;;;;;;4.13;3.30;;;;;;;10.78;59.71;99276.50;5076036;28;20051;-79
2022/04/27 01:20:36;;;;;;;4.97;3.20;;;;;;;10.77;59.71;99287.81;5092813;28;20052;-76
2022/04/27 01:23:06;;;;;;;7.15;3.13;;;;;;;10.70;59.92;99292.19;5092741;28;20465;-76
2022/04/27 01:25:54;;;;;;;3.78;2.83;;;;;;;10.65;59.90;99284.41;5092610;28;20044;-77
2022/04/27 01:28:30;;;;;;;4.18;2.88;;;;;;;10.61;60.01;99292.25;5092642;28;20448;-76
2022/04/27 01:31:03;;;;;;;4.88;2.85;;;;;;;10.63;60.06;99283.53;5092444;28;20055;-77
2022/04/27 01:33:35;;;;;;;4.88;2.80;;;;;;;10.62;60.34;99278.31;5093246;28;20098;-77
2022/04/27 01:36:09;;;;;;;4.32;2.92;;;;;;;10.53;60.66;99281.84;5093976;28;20135;-76
2022/04/27 01:38:44;;;;;;;4.32;3.00;;;;;;;10.51;60.73;99296.66;5094091;28;20048;-77
2022/04/27 01:41:14;;;;;;;4.20;2.95;;;;;;;10.47;60.78;99291.47;5094381;28;20052;-78
2022/04/27 01:43:43;;;;;;;4.93;2.90;;;;;;;10.23;61.20;99264.56;5093700;28;20567;-78
2022/04/27 01:46:10;;;;;;;4.22;2.70;;;;;;;10.37;61.01;99295.88;5092354;28;20059;-79
2022/04/27 01:48:40;;;;;;;2.90;2.60;;;;;;;10.39;60.94;99294.09;5093397;28;20134;-77
2022/04/27 01:51:09;;;;;;;3.72;2.58;;;;;;;10.42;60.72;99294.09;5093656;28;20055;-79
2022/04/27 01:56:25;;;;;;;3.78;2.70;;;;;;;10.23;60.63;99288.06;5092187;28;20142;-79
2022/04/27 01:58:54;;;;;;;4.68;2.28;;;;;;;10.33;60.82;99308.06;5092045;28;20071;-79
2022/04/27 02:01:25;;;;;;;4.55;2.42;;;;;;;10.34;61.05;99301.97;5092074;28;20051;-79
2022/04/27 02:03:59;;;;;;;3.25;2.35;;;;;;;10.23;61.05;99288.91;5075958;28;20109;-78
2022/04/27 02:06:27;;;;;;;3.75;2.50;;;;;;;10.30;61.31;99313.28;5095017;28;20509;-78
2022/04/27 02:08:56;;;;;;;3.50;2.30;;;;;;;10.21;61.04;99305.47;5092510;28;20094;-78
2022/04/27 02:11:32;;;;;;;3.15;2.30;;;;;;;10.23;61.46;99315.03;5092311;28;20052;-79
2022/04/27 02:14:04;;;;;;;2.78;2.25;;;;;;;10.17;60.99;99293.31;5093784;28;20051;-77
2022/04/27 02:16:35;;;;;;;4.97;2.40;;;;;;;10.14;61.08;99303.78;5091653;28;20117;-80
2022/04/27 02:19:04;;;;;;;4.00;2.20;;;;;;;10.17;61.36;99320.25;5092614;28;20148;-79
2022/04/27 02:21:32;;;;;;;3.40;2.23;;;;;;;10.18;61.51;99321.16;5076249;28;20054;-76
2022/04/27 02:24:01;;;;;;;3.67;2.00;;;;;;;10.23;61.30;99329.81;5081558;28;20052;-77
2022/04/27 02:26:29;;;;;;;2.47;2.20;;;;;;;10.19;61.28;99325.50;5095465;28;20055;-78
2022/04/27 02:28:58;;;;;;;3.47;1.77;;;;;;;10.18;61.76;99331.59;5092132;28;20076;-78
2022/04/27 02:31:29;;;;;;;4.03;2.40;;;;;;;10.16;61.58;99330.72;5091924;28;20047;-77
2022/04/27 02:33:57;;;;;;;3.67;2.35;;;;;;;10.11;61.59;99335.97;5093778;28;20055;-79
2022/04/27 02:36:24;;;;;;;2.33;1.92;;;;;;;10.08;61.66;99338.56;5096055;28;20486;-77
2022/04/27 02:38:53;;;;;;;2.55;2.00;;;;;;;10.12;61.64;99334.22;5097052;28;20147;-78
2022/04/27 02:41:22;;;;;;;2.42;2.10;;;;;;;10.01;61.74;99329.91;5096159;28;20087;-79
2022/04/27 02:43:49;;;;;;;3.95;2.10;;;;;;;9.96;62.23;99329.06;5096992;28;20055;-77
2022/04/27 02:46:21;;;;;;;3.60;1.80;;;;;;;10.03;62.42;99345.56;5096240;28;20048;-79
2022/04/27 02:51:53;;;;;;;2.55;1.60;;;;;;;10.13;61.43;99349.00;5095805;28;20055;-78
2022/04/27 02:54:50;;;;;;;2.38;1.90;;;;;;;9.98;62.07;99324.69;5082489;28;20432;-78
2022/04/27 02:57:20;;;;;;;5.65;1.98;;;;;;;10.11;61.72;99358.56;5095584;28;20432;-79
2022/04/27 02:59:48;;;;;;;2.75;2.17;;;;;;;10.10;61.65;99354.22;5078766;28;20398;-79
2022/04/27 03:02:17;;;;;;;3.85;1.85;;;;;;;10.05;61.87;99349.88;5095777;28;20577;-79
2022/04/27 03:04:46;;;;;;;2.60;1.90;;;;;;;10.07;61.74;99354.22;5096972;28;20098;-79
2022/04/27 03:07:14;;;;;;;3.00;1.90;;;;;;;9.87;61.99;99328.19;5096837;28;20527;-77
2022/04/27 03:09:50;;;;;;;3.25;2.22;;;;;;;10.01;62.36;99368.16;5095607;28;20060;-78
2022/04/27 03:12:18;;;;;;;2.58;2.10;;;;;;;9.82;61.82;99355.16;5095486;28;20063;-79
2022/04/27 03:14:48;;;;;;;2.45;2.15;;;;;;;9.89;62.17;99355.16;5095815;28;20097;-79
2022/04/27 03:17:17;;;;;;;2.45;2.10;;;;;;;9.88;62.22;99348.19;5096328;28;20052;-78
2022/04/27 03:19:47;;;;;;;2.92;2.08;;;;;;;9.85;62.13;99343.84;5096426;28;20083;-77
2022/04/27 03:22:15;;;;;;;2.55;1.95;;;;;;;9.87;62.52;99362.97;5095749;28;20109;-78
2022/04/27 03:24:44;;;;;;;2.35;1.80;;;;;;;9.89;62.48;99362.97;5095234;28;20057;-76
2022/04/27 03:27:18;;;;;;;5.38;2.05;;;;;;;9.84;62.22;99365.59;5095413;28;20052;-78
2022/04/27 03:29:49;;;;;;;3.25;2.20;;;;;;;9.86;62.38;99369.06;5094106;28;20052;-77
2022/04/27 03:32:19;;;;;;;2.25;2.00;;;;;;;9.69;62.32;99337.78;5112928;28;20101;-78
2022/04/27 03:34:55;;;;;;;2.15;1.80;;;;;;;9.88;62.84;99372.53;5110542;28;20425;-77
2022/04/27 03:37:27;;;;;;;3.00;2.20;;;;;;;9.91;62.80;99380.34;5096438;28;20055;-79
2022/04/27 03:39:56;;;;;;;2.72;2.00;;;;;;;9.91;62.67;99379.50;5096176;28;20067;-78
2022/04/27 03:42:25;;;;;;;3.35;2.45;;;;;;;9.81;62.74;99395.16;5096383;28;20142;-78
2022/04/27 03:45:01;;;;;;;2.97;2.22;;;;;;;9.75;63.14;99394.31;5094903;28;20056;-79
2022/04/27 03:47:39;;;;;;;2.70;2.20;;;;;;;9.75;63.67;99387.34;5094281;28;20056;-79
2022/04/27 03:50:09;;;;;;;6.53;2.30;;;;;;;9.69;64.18;99373.44;5095062;28;20059;-81
2022/04/27 03:52:43;;;;;;;3.38;2.35;;;;;;;9.70;64.08;99383.00;5078805;28;20505;-76
2022/04/27 03:55:13;;;;;;;3.97;2.50;;;;;;;9.82;64.45;99402.09;5085193;28;20047;-77
2022/04/27 03:57:43;;;;;;;3.55;2.42;;;;;;;9.84;64.38;99391.69;5094094;28;20060;-78
2022/04/27 04:00:12;;;;;;;3.17;2.63;;;;;;;9.84;64.32;99389.94;5059620;28;20416;-78
2022/04/27 04:02:43;;;;;;;2.88;2.30;;;;;;;9.33;64.08;99308.25;5074796;28;20053;-80
2022/04/27 04:05:13;;;;;;;2.78;2.10;;;;;;;9.69;64.09;99389.94;5069322;28;20139;-77
2022/04/27 04:07:41;;;;;;;3.72;2.88;;;;;;;9.86;64.31;99399.50;5059114;28;20087;-78
2022/04/27 04:10:09;;;;;;;8.38;2.67;;;;;;;10.00;63.97;99397.72;5095880;28;20036;-78
2022/04/27 04:12:40;;;;;;;2.97;2.33;;;;;;;10.12;64.02;99395.09;5092515;28;20071;-77
2022/04/27 04:15:26;;;;;;;4.55;2.75;;;;;;;10.12;64.06;99391.63;5092731;28;20090;-81
2022/04/27 04:18:18;;;;;;;3.17;2.30;;;;;;;10.21;63.83;99402.91;5094584;28;20052;-77
2022/04/27 04:21:05;;;;;;;3.20;2.65;;;;;;;10.19;63.74;99395.97;5095096;28;20075;-77
2022/04/27 04:23:48;;;;;;;3.65;2.60;;;;;;;10.32;63.80;99402.06;5093472;28;20055;-79
2022/04/27 04:29:04;;;;;;;6.20;2.72;;;;;;;10.49;62.97;99415.91;5089403;28;20037;-77
2022/04/27 04:31:32;;;;;;;2.58;2.30;;;;;;;10.47;62.48;99399.38;5072825;28;20509;-75
2022/04/27 04:34:14;;;;;;;2.90;2.10;;;;;;;10.52;63.06;99415.03;5073331;28;20076;-79
2022/04/27 04:36:43;;;;;;;4.43;2.53;;;;;;;10.43;63.09;99380.28;5072743;28;20464;-79
2022/04/27 04:39:11;;;;;;;2.95;2.38;;;;;;;10.65;62.55;99407.16;5073981;28;20048;-77
2022/04/27 04:41:40;;;;;;;2.45;2.25;;;;;;;10.77;61.98;99418.41;5057580;28;20147;-77
2022/04/27 04:44:08;;;;;;;4.72;2.55;;;;;;;10.91;62.06;99400.09;5072995;28;20048;-77
2022/04/27 04:46:58;;;;;;;4.55;2.67;;;;;;;10.91;61.42;99385.25;5073443;28;20088;-77
2022/04/27 04:49:47;;;;;;;4.40;2.88;;;;;;;11.13;60.70;99409.53;5074285;28;20062;-76
2022/04/27 04:52:33;;;;;;;4.07;2.50;;;;;;;11.17;60.80;99418.22;5074300;28;20520;-77
2022/04/27 04:55:33;;;;;;;5.63;2.47;;;;;;;11.45;59.71;99411.06;5071639;28;20048;-77
2022/04/27 04:58:11;;;;;;;4.18;2.72;;;;;;;11.55;59.04;99388.28;5077827;28;20464;-79
2022/04/27 05:01:10;;;;;;;4.95;2.65;;;;;;;11.65;58.57;99418.75;5042519;28;20134;-75
2022/04/27 05:03:57;;;;;;;4.95;2.72;;;;;;;11.54;58.49;99397.03;5082115;28;20048;-80
2022/04/27 05:06:52;;;;;;;6.53;2.70;;;;;;;11.77;58.68;99417.78;5084874;28;20215;-78
2022/04/27 05:09:30;;;;;;;3.25;2.47;;;;;;;11.67;58.09;99415.22;5083083;28;20037;-78
2022/04/27 05:12:19;;;;;;;3.78;2.65;;;;;;;11.64;58.61;99412.66;5084591;28;20044;-78
2022/04/27 05:15:12;;;;;;;2.75;2.30;;;;;;;11.66;58.25;99421.34;5098738;28;20127;-77
2022/04/27 05:17:53;;;;;;;2.47;2.28;;;;;;;11.55;57.49;99406.59;5080326;28;20044;-78
2022/04/27 05:20:45;;;;;;;4.03;2.05;;;;;;;11.47;58.13;99433.69;5084237;28;20044;-78
2022/04/27 05:23:43;;;;;;;4.00;2.38;;;;;;;11.40;58.24;99421.56;5027194;28;20049;-79
2022/04/27 05:26:39;;;;;;;3.88;2.40;;;;;;;11.46;57.70;99421.53;5065867;28;20048;-77
2022/04/27 05:32:44;;;;;;;3.95;2.58;;;;;;;11.37;57.88;99441.63;5080472;28;20094;-81
2022/04/27 05:35:30;;;;;;;2.97;2.30;;;;;;;11.60;57.34;99439.72;5082672;28;20051;-77
2022/04/27 05:38:18;;;;;;;2.90;1.98;;;;;;;11.93;56.78;99442.09;5073611;28;20052;-76
2022/04/27 05:40:57;;;;;;;;;;;;;;;11.95;57.03;99440.34;5073043;28;20060;-78
2022/04/27 05:43:54;;;;;;;5.43;2.22;;;;;;;12.17;56.05;99448.84;5019224;28;19932;-79
2022/04/27 05:46:35;;;;;;;;;;;;;;;12.01;56.52;99437.66;5055650;28;20414;-78
2022/04/27 05:49:36;;;;;;;2.97;2.33;;;;;;;12.00;56.23;99431.56;5062832;28;20064;-77
2022/04/27 05:52:15;;;;;;;4.07;2.60;;;;;;;12.15;55.83;99416.56;5071898;28;20052;-77
2022/04/27 05:55:06;;;;;;;3.42;2.50;;;;;;;12.52;54.60;99437.13;5044424;28;20062;-79
2022/04/27 05:58:14;;;;;;;4.38;2.67;;;;;;;12.74;53.88;99449.13;5053567;28;20142;-78
2022/04/27 06:01:02;;;;;;;2.90;2.30;;;;;;;12.78;53.49;99436.84;5073021;28;20055;-77
2022/04/27 06:03:41;;;;;;;4.82;2.28;;;;;;;12.92;53.03;99453.25;5071687;28;20135;-77
2022/04/27 06:06:11;;;;;;;5.70;2.40;;;;;;;12.89;52.93;99459.41;5071707;28;20061;-77
2022/04/27 06:08:39;;;;;;;4.72;2.38;;;;;;;12.72;53.21;99429.91;5071418;28;20055;-77
2022/04/27 06:11:16;;;;;;;2.75;2.30;;;;;;;12.55;52.55;99419.63;5071981;28;20052;-77
2022/04/27 06:14:10;;;;;;;5.93;2.08;;;;;;;12.86;52.52;99456.84;5070029;28;20064;-78
2022/04/27 06:16:45;;;;;;;3.33;2.05;;;;;;;13.05;52.09;99451.34;5072708;28;20517;-78
2022/04/27 06:19:16;;;;;;;3.42;2.10;;;;;;;13.23;51.35;99445.00;5071992;28;20054;-78
2022/04/27 06:21:47;;;;;;;4.38;2.00;;;;;;;13.70;50.40;99452.19;5071869;28;20057;-75
2022/04/27 06:24:16;;;;;;;6.80;2.13;;;;;;;14.15;48.97;99433.03;5074811;28;20058;-78
2022/04/27 06:26:43;;;;;;;2.28;1.90;;;;;;;14.44;48.29;99457.91;5072012;28;20055;-78
2022/04/27 06:29:12;;;;;;;5.88;1.60;;;;;;;14.09;47.21;99415.63;5071387;28;20056;-78
2022/04/27 06:31:46;;;;;;;4.07;2.08;;;;;;;14.18;47.85;99424.25;5071519;28;20083;-79
2022/04/27 06:34:15;;;;;;;5.03;1.92;;;;;;;14.81;46.55;99458.09;5073193;28;20058;-77
2022/04/27 06:36:42;;;;;;;4.00;1.67;;;;;;;15.05;46.04;99448.81;5071926;28;20052;-76
2022/04/27 06:39:26;;;;;;;2.05;1.85;;;;;;;15.02;45.58;99448.91;5060464;28;20136;-77
2022/04/27 06:41:53;;;;;;;3.30;1.75;;;;;;;14.97;45.54;99445.50;5082910;28;20048;-76
2022/04/27 06:44:37;;;;;;;2.55;1.60;;;;;;;15.11;45.05;99426.78;5091398;28;20052;-77
2022/04/27 06:47:31;;;;;;;4.57;1.60;;;;;;;15.67;43.84;99439.53;5091984;28;20144;-77
2022/04/27 06:50:18;;;;;;;2.83;1.70;;;;;;;15.59;43.86;99441.47;5092165;28;20194;-77
2022/04/27 06:53:04;;;;;;;2.60;2.38;;;;;;;15.51;43.78;99455.69;5095255;28;20054;-77
2022/04/27 06:55:51;;;;;;;4.00;1.50;;;;;;;15.48;43.83;99462.78;5096059;28;20055;-77
2022/04/27 06:58:47;;;;;;;2.03;1.85;;;;;;;15.46;44.04;99444.38;5078318;28;20048;-77
2022/04/27 07:01:21;;;;;;;6.05;2.55;;;;;;;15.63;43.54;99427.34;5093269;28;20115;-78
2022/04/27 07:03:54;;;;;;;3.85;2.00;;;;;;;16.09;42.83;99453.44;5092631;28;20066;-78
2022/04/27 07:06:24;;;;;;;5.25;2.40;;;;;;;16.48;41.75;99445.38;5091463;28;20117;-76
2022/04/27 07:08:55;;;;;;;1.75;1.65;;;;;;;16.67;41.21;99422.00;5091064;28;20121;-78
2022/04/27 07:11:23;;;;;;;2.05;1.85;;;;;;;16.44;40.19;99446.38;5092723;28;20486;-76
2022/04/27 07:13:54;;;;;;;3.05;1.77;;;;;;;15.81;40.37;99450.63;5092489;28;20063;-78
2022/04/27 07:16:22;;;;;;;2.13;1.92;;;;;;;15.23;41.12;99451.94;5092400;28;20086;-77
2022/04/27 07:18:53;;;;;;;2.10;1.70;;;;;;;15.05;41.63;99450.59;5092037;28;20491;-77
2022/04/27 07:21:22;;;;;;;3.35;1.85;;;;;;;14.91;41.54;99419.34;5095357;28;20531;-76
2022/04/27 07:23:50;;;;;;;3.23;2.17;;;;;;;15.15;42.03;99421.41;5095951;28;20570;-75
2022/04/27 07:26:17;;;;;;;4.03;1.90;;;;;;;15.51;41.65;99445.16;5096106;28;20475;-77
2022/04/27 07:28:45;;;;;;;3.58;2.00;;;;;;;15.66;40.25;99456.22;5096058;28;20098;-76
2022/04/27 07:31:14;;;;;;;3.95;2.13;;;;;;;15.62;40.65;99433.53;5095409;28;20109;-78
2022/04/27 07:33:41;;;;;;;2.50;2.30;;;;;;;15.77;40.22;99434.03;5095812;28;20048;-77
2022/04/27 07:36:10;;;;;;;3.58;1.88;;;;;;;15.61;40.78;99430.00;5094934;28;20052;-77
2022/04/27 07:38:39;;;;;;;2.15;1.95;;;;;;;15.82;40.65;99428.66;5096466;28;20082;-76
2022/04/27 07:41:07;;;;;;;2.95;2.08;;;;;;;16.25;40.21;99443.34;5096316;28;20072;-75
2022/04/27 07:43:35;;;;;;;4.18;2.15;;;;;;;16.56;39.64;99456.59;5096310;28;20056;-76
2022/04/27 07:46:06;;;;;;;4.95;2.10;;;;;;;16.30;39.83;99423.00;5095596;28;20049;-77
2022/04/27 07:48:35;;;;;;;4.43;1.75;;;;;;;16.11;38.03;99453.38;5096177;28;20048;-76
2022/04/27 07:51:06;;;;;;;2.25;1.75;;;;;;;15.69;37.25;99449.13;5096094;28;20078;-76
2022/04/27 07:53:33;;;;;;;2.95;1.90;;;;;;;15.70;36.92;99455.25;5096064;28;20497;-76
2022/04/27 07:56:01;;;;;;;2.65;1.67;;;;;;;16.10;36.51;99449.03;5096536;28;20488;-80
2022/04/27 07:58:31;;;;;;;4.05;1.90;;;;;;;16.28;36.12;99445.94;5095923;28;20056;-77
2022/04/27 08:01:00;;;;;;;2.22;1.80;;;;;;;16.54;35.59;99437.31;5094956;28;20480;-77
2022/04/27 08:03:27;;;;;;;3.90;2.00;;;;;;;16.70;35.30;99448.28;5079130;28;20528;-76
2022/04/27 08:05:57;;;;;;;2.77;1.80;;;;;;;16.55;35.29;99436.38;5097114;28;20501;-77
2022/04/27 08:08:25;;;;;;;2.30;2.10;;;;;;;16.57;35.48;99437.22;5110750;28;20687;-74
2022/04/27 08:10:56;;;;;;;2.03;1.80;;;;;;;16.34;35.07;99436.97;5110489;28;20051;-76
2022/04/27 08:13:24;;;;;;;6.07;2.10;;;;;;;16.17;35.48;99443.56;5113905;28;20056;-75
2022/04/27 08:15:52;;;;;;;4.85;1.90;;;;;;;15.92;35.15;99445.97;5099283;28;20064;-76
2022/04/27 08:18:20;;;;;;;2.13;1.88;;;;;;;15.47;35.25;99425.09;5096078;28;20058;-78
2022/04/27 08:23:36;;;;;;;2.28;2.08;;;;;;;15.17;35.77;99394.22;5094671;28;20083;-75
2022/04/27 08:26:05;;;;;;;3.70;1.90;;;;;;;15.46;35.64;99407.53;5094952;28;20051;-78
2022/04/27 08:28:33;;;;;;;4.93;2.22;;;;;;;15.61;35.39;99437.91;5106697;28;20479;-75
2022/04/27 08:31:00;;;;;;;3.35;2.17;;;;;;;15.92;34.93;99443.31;5108958;28;20070;-77
2022/04/27 08:33:28;;;;;;;2.97;2.03;;;;;;;16.03;33.88;99435.16;5110096;28;20052;-76
2022/04/27 08:35:57;;;;;;;2.58;2.00;;;;;;;16.07;34.55;99457.88;5100016;28;20051;-76
2022/04/27 08:38:45;;;;;;;2.40;2.20;;;;;;;16.05;34.64;99443.88;5090676;28;20519;-77
2022/04/27 08:41:12;;;;;;;2.20;2.00;;;;;;;15.90;34.59;99445.13;5086233;28;20480;-78
2022/04/27 08:43:39;;;;;;;2.40;2.20;;;;;;;15.61;34.92;99442.31;5083482;28;20140;-76
2022/04/27 08:46:08;;;;;;;2.28;2.08;;;;;;;15.62;35.22;99444.91;5084337;28;20050;-77
2022/04/27 08:48:36;;;;;;;2.47;2.17;;;;;;;15.85;34.68;99425.97;5082964;28;20048;-78
2022/04/27 08:51:05;;;;;;;5.03;2.28;;;;;;;16.02;34.54;99443.94;5083490;28;20055;-77
2022/04/27 08:53:34;;;;;;;2.38;1.98;;;;;;;16.35;33.81;99441.34;5084386;28;20432;-77
2022/04/27 08:56:01;;;;;;;2.33;1.77;;;;;;;16.77;33.10;99433.13;5083551;28;20068;-77
2022/04/27 08:58:30;;;;;;;2.83;2.30;;;;;;;17.06;32.93;99427.06;5089658;28;20044;-77
2022/04/27 09:01:15;;;;;;;6.22;2.35;;;;;;;17.23;32.54;99420.38;5088205;28;20059;-76
2022/04/27 09:03:44;;;;;;;3.80;2.25;;;;;;;17.18;31.96;99452.19;5076580;28;20051;-77
2022/04/27 09:06:13;;;;;;;2.80;1.85;;;;;;;16.79;32.10;99441.88;5094306;28;20058;-78
2022/04/27 09:08:52;;;;;;;2.60;2.13;;;;;;;16.84;32.29;99436.50;5094035;28;20077;-77
2022/04/27 09:11:21;;;;;;;2.63;1.80;;;;;;;16.97;32.45;99444.03;5096401;28;20290;-78
2022/04/27 09:13:55;;;;;;;5.28;2.85;;;;;;;17.03;32.84;99445.59;5094306;28;20064;-79
2022/04/27 09:16:26;;;;;;;3.97;2.53;;;;;;;16.95;32.41;99445.84;5093721;28;20052;-79
2022/04/27 09:21:58;;;;;;;5.43;2.25;;;;;;;16.68;33.24;99442.19;5093703;28;20493;-77
2022/04/27 09:24:29;;;;;;;5.15;2.05;;;;;;;16.29;33.69;99452.91;5083304;28;20130;-77
2022/04/27 09:27:00;;;;;;;3.42;2.05;;;;;;;15.94;34.33;99452.06;5083188;28;20062;-77
2022/04/27 09:29:28;;;;;;;3.58;2.20;;;;;;;15.97;34.61;99430.03;5082148;28;20044;-79
2022/04/27 09:31:58;;;;;;;2.72;2.20;;;;;;;16.08;34.55;99441.16;5082538;28;20043;-78
2022/04/27 09:34:28;;;;;;;3.45;2.40;;;;;;;15.98;34.07;99429.13;5081522;28;20052;-78
2022/04/27 09:37:02;;;;;;;3.53;2.30;;;;;;;16.11;34.52;99454.28;5081418;28;20134;-78
2022/04/27 09:39:29;;;;;;;7.40;2.20;;;;;;;16.15;33.66;99455.03;5081422;28;20444;-78
2022/04/27 09:42:06;;;;;;;1.85;1.75;;;;;;;16.18;32.71;99449.69;5080695;28;20055;-77
2022/04/27 09:44:35;;;;;;;4.00;2.10;;;;;;;16.24;32.83;99452.19;5073163;28;20409;-77
2022/04/27 09:47:06;;;;;;;2.43;2.23;;;;;;;16.16;33.94;99441.81;5072978;28;20056;-79
2022/04/27 09:49:36;;;;;;;5.25;3.13;;;;;;;15.97;34.92;99430.91;5073155;28;20785;-79
2022/04/27 09:52:07;;;;;;;5.03;2.67;;;;;;;15.89;35.12;99440.75;5073112;28;20056;-78
2022/04/27 09:54:40;;;;;;;4.72;3.60;;;;;;;15.76;35.67;99457.75;5072825;28;20135;-78
2022/04/27 09:57:13;;;;;;;5.50;2.35;;;;;;;15.53;35.73;99460.91;5071946;28;20064;-78
2022/04/27 09:59:42;;;;;;;4.20;2.80;;;;;;;15.47;36.64;99461.94;5071846;28;20109;-78
2022/04/27 10:02:14;;;;;;;;;;;;;;;15.07;36.89;99461.94;5073201;28;20147;-77
2022/04/27 10:04:44;;;;;;;2.88;2.63;;;;;;;15.05;37.24;99474.25;5073125;28;20342;-77
2022/04/27 10:07:13;;;;;;;4.10;2.65;;;;;;;14.89;37.23;99442.16;5073043;28;20067;-78
2022/04/27 10:09:43;;;;;;;4.97;2.55;;;;;;;14.91;36.70;99464.91;5074222;28;20094;-78
2022/04/27 10:12:13;;;;;;;5.22;2.40;;;;;;;14.83;36.74;99474.69;5092528;28;20048;-78
2022/04/27 10:14:42;;;;;;;3.63;2.45;;;;;;;14.62;36.50;99475.13;5092992;28;20056;-77
2022/04/27 10:17:12;;;;;;;4.20;2.90;;;;;;;14.60;37.35;99496.16;5092286;28;20059;-78
2022/04/27 10:19:51;;;;;;;6.25;2.75;;;;;;;14.49;37.55;99488.44;5092774;28;20101;-78
2022/04/27 10:22:28;;;;;;;5.88;2.90;;;;;;;14.41;37.39;99485.13;5093224;28;20469;-77
2022/04/27 10:24:56;;;;;;;7.50;2.90;;;;;;;14.25;38.44;99486.28;5092919;28;20083;-76
2022/04/27 10:27:37;;;;;;;3.38;2.53;;;;;;;14.34;38.94;99504.50;5093124;28;20052;-80
2022/04/27 10:30:08;;;;;;;3.30;2.30;;;;;;;14.24;38.41;99484.53;5093042;28;20060;-78
2022/04/27 10:32:40;;;;;;;5.35;2.60;;;;;;;14.33;38.72;99513.28;5092157;28;20059;-77
2022/04/27 10:35:12;;;;;;;6.47;3.00;;;;;;;14.28;38.90;99512.50;5091483;28;20485;-78
2022/04/27 10:37:57;;;;;;;5.60;2.85;;;;;;;14.14;38.49;99521.47;5093096;28;20138;-77
2022/04/27 10:40:39;;;;;;;5.28;2.42;;;;;;;13.96;39.10;99490.28;5092512;28;20048;-77
2022/04/27 10:43:07;;;;;;;5.78;2.90;;;;;;;14.14;39.19;99523.25;5093745;28;20146;-78
2022/04/27 10:45:40;;;;;;;5.53;2.97;;;;;;;13.95;39.86;99504.28;5091479;28;20501;-77
2022/04/27 10:48:18;;;;;;;3.85;2.85;;;;;;;14.16;39.73;99539.84;5091341;28;20105;-76
2022/04/27 10:51:00;;;;;;;4.28;3.17;;;;;;;14.06;40.01;99528.59;5091495;28;20056;-76
2022/04/27 10:53:38;;;;;;;4.20;2.88;;;;;;;14.38;39.86;99532.47;5092997;28;20048;-78
2022/04/27 10:56:27;;;;;;;7.55;3.15;;;;;;;14.46;39.27;99514.81;5095677;28;20059;-79
2022/04/27 10:58:56;;;;;;;5.20;2.85;;;;;;;14.61;39.13;99526.84;5096994;28;20048;-76
2022/04/27 11:01:31;;;;;;;5.03;2.85;;;;;;;14.51;39.38;99533.13;5095557;28;20063;-78
2022/04/27 11:04:04;;;;;;;7.30;3.08;;;;;;;14.36;39.50;99507.97;5096167;28;20456;-76
2022/04/27 11:07:01;;;;;;;7.40;3.15;;;;;;;14.63;39.63;99539.97;5096551;28;20169;-76
2022/04/27 11:10:10;;;;;;;5.35;3.33;;;;;;;14.83;38.62;99536.94;5095482;28;20056;-76
2022/04/27 11:12:40;;;;;;;5.75;3.25;;;;;;;14.87;38.98;99546.50;5046208;28;20048;-76
2022/04/27 11:15:11;;;;;;;5.80;3.05;;;;;;;15.09;38.56;99539.91;5095070;28;20044;-78
2022/04/27 11:17:40;;;;;;;7.57;3.83;;;;;;;15.37;38.23;99536.72;5095595;28;20048;-81
2022/04/27 11:20:32;;;;;;;9.10;3.88;;;;;;;15.27;37.24;99548.34;5096290;28;20056;-78
2022/04/27 11:23:03;;;;;;;6.22;2.90;;;;;;;14.94;37.97;99540.22;5096486;28;20056;-80
2022/04/27 11:25:33;;;;;;;6.68;3.10;;;;;;;14.71;37.75;99536.28;5096722;28;20105;-79
2022/04/27 11:28:06;;;;;;;5.78;2.85;;;;;;;14.42;38.03;99521.00;5096506;28;20048;-77
2022/04/27 11:30:36;;;;;;;7.55;2.90;;;;;;;14.38;38.28;99535.09;5104158;28;20060;-78
2022/04/27 11:33:04;;;;;;;8.75;3.15;;;;;;;14.47;38.32;99553.31;5099732;28;20058;-77
2022/04/27 11:35:39;;;;;;;4.85;2.53;;;;;;;14.54;37.78;99538.34;5094916;28;20063;-76
2022/04/27 11:38:08;;;;;;;7.97;2.78;;;;;;;14.47;37.68;99497.28;5094937;28;20508;-76
2022/04/27 11:40:38;;;;;;;8.80;3.15;;;;;;;14.75;37.58;99534.44;5094590;28;20459;-77
2022/04/27 11:43:06;;;;;;;6.03;2.67;;;;;;;14.91;37.49;99553.44;5078330;28;20139;-78
2022/04/27 11:45:35;;;;;;;6.60;2.67;;;;;;;14.84;37.28;99543.94;5096012;28;20052;-77
2022/04/27 11:48:04;;;;;;;3.92;2.60;;;;;;;14.74;37.45;99559.88;5094833;28;20079;-78
2022/04/27 11:50:34;;;;;;;5.33;2.80;;;;;;;14.82;37.30;99543.97;5096159;28;20059;-79
2022/04/27 11:53:07;;;;;;;6.53;3.33;;;;;;;14.86;37.07;99536.88;5094721;28;20056;-78
2022/04/27 11:55:36;;;;;;;7.53;3.60;;;;;;;14.82;37.48;99520.31;5096203;28;20048;-77
2022/04/27 11:58:07;;;;;;;7.30;3.00;;;;;;;14.87;37.33;99554.41;5097305;28;20055;-77
2022/04/27 12:00:36;;;;;;;6.38;3.22;;;;;;;14.77;37.63;99561.59;5096133;28;20044;-78
2022/04/27 12:03:06;;;;;;;7.05;3.60;;;;;;;14.46;38.40;99546.34;5095844;28;20052;-75
2022/04/27 12:05:38;;;;;;;9.90;3.90;;;;;;;14.27;38.96;99532.66;5111926;28;20138;-78
2022/04/27 12:08:09;;;;;;;10.57;4.55;;;;;;;14.39;39.08;99551.72;5110229;28;20074;-76
2022/04/27 12:10:39;;;;;;;15.00;6.75;;;;;;;14.41;39.45;99552.56;5114740;28;20052;-76
2022/04/27 12:13:09;;;;;;;6.03;3.60;;;;;;;14.18;39.91;99543.31;5097898;28;20102;-78
2022/04/27 12:15:39;;;;;;;4.38;3.00;;;;;;;14.31;39.76;99571.13;5094530;28;20055;-77
2022/04/27 12:18:13;;;;;;;5.35;3.08;;;;;;;14.19;39.65;99571.31;5094975;28;20143;-79
2022/04/27 12:20:48;;;;;;;4.18;2.80;;;;;;;14.13;39.94;99566.13;5094999;28;20091;-77